createdAt,value
2018-03-21T00:00:11.868Z,3.10
2018-03-21T00:02:13.216Z,2.90
2018-03-21T00:04:14.193Z,2.90
2018-03-21T00:06:15.152Z,2.90
2018-03-21T00:08:16.485Z,2.90
2018-03-21T00:10:17.438Z,2.90
2018-03-21T00:12:18.379Z,2.90
2018-03-21T00:14:19.357Z,2.90
2018-03-21T00:16:20.313Z,2.90
2018-03-21T00:18:21.280Z,2.80
2018-03-21T00:20:22.275Z,2.80
2018-03-21T00:22:23.222Z,2.80
2018-03-21T00:24:24.199Z,2.90
2018-03-21T00:26:25.399Z,2.90
2018-03-21T00:28:26.352Z,3.00
2018-03-21T00:30:27.309Z,2.90
2018-03-21T00:32:28.650Z,2.60
2018-03-21T00:34:29.973Z,2.20
2018-03-21T00:36:30.937Z,2.20
2018-03-21T00:38:31.888Z,2.10
2018-03-21T00:40:32.856Z,2.00
2018-03-21T00:42:33.809Z,2.00
2018-03-21T00:44:34.768Z,2.00
2018-03-21T00:46:35.744Z,2.00
2018-03-21T00:48:36.701Z,2.10
2018-03-21T00:50:37.661Z,1.90
2018-03-21T00:52:39.012Z,1.90
2018-03-21T00:54:40.333Z,2.10
2018-03-21T00:56:41.291Z,2.10
2018-03-21T00:58:42.240Z,2.20
2018-03-21T01:00:43.201Z,2.20
2018-03-21T01:02:44.149Z,2.10
2018-03-21T01:04:45.216Z,2.00
2018-03-21T01:06:46.552Z,1.90
2018-03-21T01:08:47.508Z,1.90
2018-03-21T01:10:48.837Z,1.80
2018-03-21T01:12:50.170Z,1.90
2018-03-21T01:14:51.132Z,1.80
2018-03-21T01:16:52.096Z,1.80
2018-03-21T01:18:53.055Z,1.70
2018-03-21T01:20:54.021Z,1.60
2018-03-21T01:22:55.370Z,1.50
2018-03-21T01:24:57.092Z,1.40
2018-03-21T01:26:58.040Z,1.40
2018-03-21T01:28:59.365Z,1.20
2018-03-21T01:31:00.311Z,1.20
2018-03-21T01:33:01.261Z,1.10
2018-03-21T01:35:02.641Z,1.00
2018-03-21T01:37:03.599Z,1.00
2018-03-21T01:39:04.748Z,0.90
2018-03-21T01:41:05.707Z,0.90
2018-03-21T01:43:07.066Z,1.10
2018-03-21T01:45:08.028Z,1.10
2018-03-21T01:47:08.992Z,1.20
2018-03-21T01:49:09.963Z,1.40
2018-03-21T01:51:11.301Z,1.60
2018-03-21T01:53:12.649Z,1.70
2018-03-21T01:55:13.976Z,1.70
2018-03-21T01:57:14.926Z,1.70
2018-03-21T01:59:15.897Z,1.60
2018-03-21T02:01:16.857Z,1.60
2018-03-21T02:03:17.808Z,1.50
2018-03-21T02:05:18.772Z,1.30
2018-03-21T02:07:19.738Z,1.20
2018-03-21T02:09:20.708Z,1.20
2018-03-21T02:11:21.668Z,1.20
2018-03-21T02:13:22.637Z,1.10
2018-03-21T02:15:23.608Z,1.20
2018-03-21T02:17:24.589Z,1.20
2018-03-21T02:19:25.536Z,1.20
2018-03-21T02:21:28.070Z,1.20
2018-03-21T02:23:29.402Z,1.30
2018-03-21T02:25:30.357Z,1.30
2018-03-21T02:27:31.332Z,1.30
2018-03-21T02:29:32.293Z,1.30
2018-03-21T02:31:33.260Z,1.30
2018-03-21T02:33:34.225Z,1.20
2018-03-21T02:35:35.216Z,1.20
2018-03-21T02:37:36.549Z,1.00
2018-03-21T02:39:37.516Z,1.00
2018-03-21T02:41:38.527Z,1.00
2018-03-21T02:43:39.848Z,1.00
2018-03-21T02:45:40.824Z,1.00
2018-03-21T02:47:41.783Z,1.00
2018-03-21T02:49:42.740Z,1.10
2018-03-21T02:51:43.698Z,1.00
2018-03-21T02:53:45.064Z,1.00
2018-03-21T02:55:46.408Z,0.90
2018-03-21T02:57:47.405Z,0.90
2018-03-21T02:59:48.365Z,0.70
2018-03-21T03:01:49.685Z,0.40
2018-03-21T03:03:50.639Z,0.40
2018-03-21T03:05:52.344Z,0.30
2018-03-21T03:07:53.292Z,0.30
2018-03-21T03:09:54.270Z,0.20
2018-03-21T03:11:55.592Z,0.30
2018-03-21T03:13:56.542Z,0.30
2018-03-21T03:15:57.890Z,0.30
2018-03-21T03:17:59.208Z,0.30
2018-03-21T03:20:00.168Z,0.30
2018-03-21T03:22:01.116Z,0.30
2018-03-21T03:24:02.099Z,0.20
2018-03-21T03:26:03.065Z,0.10
2018-03-21T03:28:04.401Z,-0.10
2018-03-21T03:30:05.802Z,-0.10
2018-03-21T03:32:06.757Z,0.00
2018-03-21T03:34:07.712Z,-0.10
2018-03-21T03:36:09.055Z,0.00
2018-03-21T03:38:10.013Z,0.00
2018-03-21T03:40:10.971Z,0.00
2018-03-21T03:42:11.930Z,0.10
2018-03-21T03:44:12.918Z,0.20
2018-03-21T03:46:13.876Z,0.20
2018-03-21T03:48:14.845Z,0.10
2018-03-21T03:50:16.180Z,0.10
2018-03-21T03:52:17.131Z,0.00
2018-03-21T03:54:18.088Z,-0.10
2018-03-21T03:56:19.057Z,-0.10
2018-03-21T03:58:20.012Z,-0.10
2018-03-21T04:00:20.974Z,-0.10
2018-03-21T04:02:21.925Z,-0.20
2018-03-21T04:04:23.280Z,-0.10
2018-03-21T04:06:24.231Z,-0.10
2018-03-21T04:08:25.187Z,-0.20
2018-03-21T04:10:26.147Z,-0.20
2018-03-21T04:12:27.113Z,-0.20
2018-03-21T04:14:28.084Z,-0.20
2018-03-21T04:16:29.041Z,-0.30
2018-03-21T04:18:30.007Z,-0.30
2018-03-21T04:20:31.360Z,0.00
2018-03-21T04:22:32.320Z,0.00
2018-03-21T04:24:33.302Z,0.20
2018-03-21T04:26:34.262Z,0.30
2018-03-21T04:28:35.217Z,0.30
2018-03-21T04:30:36.189Z,0.30
2018-03-21T04:32:37.435Z,0.40
2018-03-21T04:34:38.423Z,0.30
2018-03-21T04:36:39.365Z,0.40
2018-03-21T04:38:40.336Z,0.30
2018-03-21T04:40:41.308Z,0.20
2018-03-21T04:42:42.272Z,0.00
2018-03-21T04:44:43.644Z,0.00
2018-03-21T04:46:44.604Z,-0.10
2018-03-21T04:48:45.944Z,-0.10
2018-03-21T04:50:47.294Z,-0.20
2018-03-21T04:52:48.631Z,-0.30
2018-03-21T04:54:49.974Z,-0.30
2018-03-21T04:56:51.305Z,-0.30
2018-03-21T04:58:52.372Z,-0.30
2018-03-21T05:00:53.334Z,-0.40
2018-03-21T05:02:54.298Z,-0.30
2018-03-21T05:04:55.294Z,-0.20
2018-03-21T05:06:56.271Z,-0.30
2018-03-21T05:08:57.280Z,-0.30
2018-03-21T05:10:58.252Z,-0.30
2018-03-21T05:12:59.215Z,-0.30
2018-03-21T05:15:00.557Z,-0.30
2018-03-21T05:17:01.993Z,-0.30
2018-03-21T05:19:03.317Z,-0.30
2018-03-21T05:21:04.276Z,-0.30
2018-03-21T05:23:05.613Z,-0.40
2018-03-21T05:25:06.943Z,-0.40
2018-03-21T05:27:07.892Z,-0.40
2018-03-21T05:29:09.697Z,-0.40
2018-03-21T05:31:10.647Z,-0.40
2018-03-21T05:33:11.604Z,-0.20
2018-03-21T05:35:12.973Z,-0.20
2018-03-21T05:37:13.936Z,-0.20
2018-03-21T05:39:14.881Z,-0.30
2018-03-21T05:41:15.903Z,-0.40
2018-03-21T05:43:17.202Z,-0.50
2018-03-21T05:45:18.520Z,-0.50
2018-03-21T05:47:19.472Z,-0.50
2018-03-21T05:49:21.243Z,-0.60
2018-03-21T05:51:22.196Z,-0.60
2018-03-21T05:53:23.157Z,-0.60
2018-03-21T05:55:24.224Z,-0.60
2018-03-21T05:57:25.174Z,-0.60
2018-03-21T05:59:26.144Z,-0.50
2018-03-21T06:01:27.109Z,-0.50
2018-03-21T06:03:28.068Z,-0.60
2018-03-21T06:05:29.404Z,-0.60
2018-03-21T06:07:30.395Z,-0.60
2018-03-21T06:09:31.339Z,-0.60
2018-03-21T06:11:32.311Z,-0.70
2018-03-21T06:13:33.636Z,-0.70
2018-03-21T06:15:34.600Z,-0.70
2018-03-21T06:17:35.931Z,-0.60
2018-03-21T06:19:37.272Z,-0.60
2018-03-21T06:21:38.602Z,-0.50
2018-03-21T06:23:39.598Z,-0.50
2018-03-21T06:25:40.563Z,-0.50
2018-03-21T06:27:41.520Z,-0.50
2018-03-21T06:29:43.143Z,-0.50
2018-03-21T06:31:44.112Z,-0.40
2018-03-21T06:33:45.441Z,-0.20
2018-03-21T06:35:46.419Z,-0.20
2018-03-21T06:37:47.360Z,-0.20
2018-03-21T06:39:48.315Z,-0.10
2018-03-21T06:41:49.278Z,0.00
2018-03-21T06:43:50.228Z,0.10
2018-03-21T06:45:51.575Z,0.30
2018-03-21T06:47:52.932Z,0.30
2018-03-21T06:49:53.888Z,0.30
2018-03-21T06:51:54.840Z,0.40
2018-03-21T06:53:55.816Z,0.40
2018-03-21T06:55:57.145Z,0.30
2018-03-21T06:57:58.093Z,0.30
2018-03-21T06:59:59.437Z,0.30
2018-03-21T07:02:00.762Z,0.40
2018-03-21T07:04:01.741Z,0.40
2018-03-21T07:06:03.032Z,0.50
2018-03-21T07:08:03.993Z,0.50
2018-03-21T07:10:05.488Z,0.60
2018-03-21T07:12:06.475Z,0.60
2018-03-21T07:14:20.293Z,0.50
2018-03-21T07:16:33.689Z,0.50
2018-03-21T07:18:34.708Z,0.40
2018-03-21T07:20:35.660Z,0.70
2018-03-21T07:22:36.624Z,0.80
2018-03-21T07:24:38.267Z,1.10
2018-03-21T07:26:39.221Z,1.10
2018-03-21T07:28:40.559Z,1.30
2018-03-21T07:30:41.912Z,1.40
2018-03-21T07:32:43.252Z,1.70
2018-03-21T07:34:44.580Z,1.90
2018-03-21T07:36:45.535Z,2.00
2018-03-21T07:38:46.513Z,2.10
2018-03-21T07:40:47.464Z,2.30
2018-03-21T07:42:48.411Z,2.50
2018-03-21T07:44:49.384Z,2.80
2018-03-21T07:46:50.363Z,3.00
2018-03-21T07:48:51.328Z,3.10
2018-03-21T07:50:52.300Z,3.00
2018-03-21T07:52:53.261Z,2.80
2018-03-21T07:54:54.216Z,2.80
2018-03-21T07:56:55.174Z,3.10
2018-03-21T07:58:56.500Z,3.60
2018-03-21T08:00:57.460Z,3.60
2018-03-21T08:02:58.412Z,3.60
2018-03-21T08:04:59.367Z,3.80
2018-03-21T08:07:00.335Z,4.10
2018-03-21T08:09:02.108Z,4.50
2018-03-21T08:11:03.433Z,4.60
2018-03-21T08:13:06.979Z,4.60
2018-03-21T12:08:46.995Z,5.80
2018-03-21T12:10:48.335Z,5.50
2018-03-21T12:12:49.295Z,5.50
2018-03-21T12:14:50.276Z,5.30
2018-03-21T12:16:51.614Z,5.50
2018-03-21T12:18:52.952Z,5.40
2018-03-21T12:20:54.459Z,5.10
2018-03-21T12:22:55.407Z,5.20
2018-03-21T12:24:56.377Z,5.10
2018-03-21T12:26:57.836Z,5.20
2018-03-21T12:28:58.828Z,5.20
2018-03-21T12:30:59.917Z,5.30
2018-03-21T12:33:00.930Z,5.50
2018-03-21T12:35:02.381Z,5.60
2018-03-21T12:39:36.797Z,5.80
2018-03-21T12:41:38.138Z,5.90
2018-03-21T12:43:39.770Z,5.50
2018-03-21T12:45:41.258Z,5.40
2018-03-21T12:47:43.344Z,5.40
2018-03-21T12:49:44.514Z,5.40
2018-03-21T12:51:47.344Z,5.50
2018-03-21T12:53:50.186Z,5.40
2018-03-21T12:55:52.224Z,5.80
2018-03-21T12:57:53.346Z,5.80
2018-03-21T12:59:55.120Z,6.10
2018-03-21T13:02:11.086Z,6.10
2018-03-21T13:04:12.268Z,6.20
2018-03-21T13:06:13.447Z,6.10
2018-03-21T13:08:14.631Z,6.00
2018-03-21T13:10:17.133Z,5.70
2018-03-21T13:12:18.297Z,5.70
2018-03-21T13:14:20.105Z,5.70
2018-03-21T13:16:21.345Z,5.70
2018-03-21T13:40:54.312Z,5.60
2018-03-21T15:33:12.192Z,5.40
2018-03-21T15:35:13.253Z,6.00
2018-03-21T15:37:14.258Z,6.60
2018-03-21T15:39:15.938Z,7.10
2018-03-21T15:41:17.351Z,6.90
2018-03-21T15:43:18.504Z,6.90
2018-03-21T15:45:19.617Z,6.60
2018-03-21T15:47:20.750Z,6.40
2018-03-21T15:49:21.841Z,6.30
2018-03-21T15:51:26.399Z,6.20
2018-03-21T15:53:27.400Z,6.00
2018-03-21T15:55:28.574Z,6.00
2018-03-21T15:57:29.561Z,6.00
2018-03-21T15:59:30.640Z,5.70
2018-03-21T16:01:38.982Z,5.60
2018-03-21T16:03:44.095Z,5.70
2018-03-21T16:05:45.313Z,5.70
2018-03-21T16:07:46.444Z,5.70
2018-03-21T16:09:47.917Z,5.90
2018-03-21T16:11:49.508Z,5.90
2018-03-21T16:13:51.897Z,5.90
2018-03-21T16:15:53.092Z,5.90
2018-03-21T16:18:03.669Z,5.70
2018-03-21T16:20:04.773Z,5.80
2018-03-21T16:22:05.998Z,5.90
2018-03-21T16:24:07.070Z,6.10
2018-03-21T16:26:08.358Z,5.80
2018-03-21T16:28:09.525Z,5.60
2018-03-21T16:30:10.861Z,5.50
2018-03-21T16:32:11.929Z,5.50
2018-03-21T16:49:42.276Z,5.30
2018-03-21T16:51:52.282Z,5.30
2018-03-21T17:12:10.819Z,5.30
2018-03-21T17:16:31.440Z,5.20
2018-03-21T17:18:34.039Z,5.20
2018-03-21T17:20:36.302Z,5.30
2018-03-21T17:35:29.320Z,5.10
2018-03-21T17:39:48.697Z,5.00
2018-03-21T17:41:50.171Z,4.80
2018-03-21T17:43:51.413Z,4.80
2018-03-21T17:45:53.011Z,4.60
2018-03-21T17:47:54.130Z,4.60
2018-03-21T17:49:55.528Z,4.60
2018-03-21T17:52:06.157Z,4.60
2018-03-21T17:54:08.582Z,4.60
2018-03-21T17:56:14.119Z,4.60
2018-03-21T17:58:19.536Z,4.60
2018-03-21T18:00:20.733Z,4.50
2018-03-21T18:02:24.216Z,4.50
2018-03-21T18:04:30.412Z,4.50
2018-03-21T18:06:36.819Z,4.50
2018-03-21T18:08:37.999Z,4.50
2018-03-21T18:10:40.204Z,4.40
2018-03-21T18:12:41.315Z,4.30
2018-03-21T18:14:42.345Z,4.30
2018-03-21T18:16:43.369Z,4.30
2018-03-21T18:18:44.441Z,4.20
2018-03-21T18:20:45.722Z,4.20
2018-03-21T18:22:46.914Z,4.20
2018-03-21T18:24:48.079Z,4.20
2018-03-21T18:26:49.201Z,4.10
2018-03-21T18:28:50.239Z,4.10
2018-03-21T18:30:51.305Z,4.20
2018-03-21T18:32:52.743Z,4.00
2018-03-21T18:34:54.270Z,4.00
2018-03-21T18:36:57.097Z,4.00
2018-03-21T18:38:58.341Z,3.90
2018-03-21T18:41:00.487Z,3.90
2018-03-21T18:43:01.572Z,3.90
2018-03-21T18:45:02.654Z,3.90
2018-03-21T18:47:04.070Z,3.90
2018-03-21T18:49:05.246Z,3.90
2018-03-21T18:51:08.241Z,3.80
2018-03-21T18:53:11.073Z,3.80
2018-03-21T18:55:13.774Z,3.80
2018-03-21T18:57:20.298Z,3.80
2018-03-21T18:59:22.862Z,3.80
2018-03-21T19:01:27.394Z,3.70
2018-03-21T19:03:28.533Z,3.70
2018-03-21T19:05:34.509Z,3.70
2018-03-21T19:07:36.099Z,3.70
2018-03-21T19:09:40.067Z,3.70
2018-03-21T19:11:43.276Z,3.70
2018-03-21T19:13:52.741Z,3.70
2018-03-21T19:15:55.073Z,3.60
2018-03-21T19:17:58.013Z,3.60
2018-03-21T19:20:01.349Z,3.60
2018-03-21T19:22:14.097Z,3.60
2018-03-21T19:24:22.074Z,3.60
2018-03-21T19:26:27.607Z,3.60
2018-03-21T19:28:28.817Z,3.50
2018-03-21T19:30:32.136Z,3.50
2018-03-21T19:32:34.074Z,3.50
2018-03-21T19:40:05.220Z,3.50
2018-03-21T19:42:07.769Z,3.60
2018-03-21T19:44:08.763Z,3.60
2018-03-21T19:46:11.159Z,3.60
2018-03-21T19:48:12.402Z,3.60
2018-03-21T19:50:13.446Z,3.60
2018-03-21T19:52:14.619Z,3.60
2018-03-21T19:54:15.783Z,3.60
2018-03-21T19:56:16.843Z,3.60
2018-03-21T19:58:17.971Z,3.50
2018-03-21T20:00:19.091Z,3.50
2018-03-21T20:02:20.398Z,3.50
2018-03-21T20:04:21.948Z,3.50
2018-03-21T20:06:24.209Z,3.50
2018-03-21T20:08:26.058Z,3.50
2018-03-21T20:10:28.701Z,3.50
2018-03-21T20:12:31.498Z,3.50
2018-03-21T20:14:32.641Z,3.50
2018-03-21T20:16:33.704Z,3.50
2018-03-21T20:18:35.153Z,3.40
2018-03-21T20:20:38.037Z,3.40
2018-03-21T20:33:00.770Z,3.40
2018-03-21T20:35:03.185Z,3.40
2018-03-21T20:37:04.651Z,3.40
2018-03-21T20:39:06.427Z,3.40
2018-03-21T20:41:08.842Z,3.30
2018-03-21T20:43:11.257Z,3.40
2018-03-21T20:45:12.486Z,3.40
2018-03-21T20:47:13.673Z,3.40
2018-03-21T20:49:14.931Z,3.30
2018-03-21T20:51:17.980Z,3.30
2018-03-21T20:53:19.094Z,3.30
2018-03-21T20:55:20.965Z,3.30
2018-03-21T20:57:22.085Z,3.30
2018-03-21T20:59:23.684Z,3.30
2018-03-21T21:01:36.702Z,3.20
2018-03-21T21:03:41.333Z,3.20
2018-03-21T21:05:49.375Z,3.20
2018-03-21T21:10:00.213Z,3.20
2018-03-21T21:12:02.538Z,3.20
2018-03-21T21:14:04.262Z,3.20
2018-03-21T21:16:08.212Z,3.20
2018-03-21T21:18:12.965Z,3.20
2018-03-21T21:20:14.764Z,3.20
2018-03-21T21:22:16.827Z,3.20
2018-03-21T21:24:19.213Z,3.20
2018-03-21T21:26:20.472Z,3.20
2018-03-21T21:28:21.660Z,3.20
2018-03-21T21:30:23.675Z,3.20
2018-03-21T21:32:25.877Z,3.10
2018-03-21T21:34:30.722Z,3.20
